Time;durP1;ratioP1;P1;durP2;ratioP2;P2;SDS_P1;SDS_P2;PMS_P1;PMS_P2;Temp;Humidity;BMP_temperature;BMP_pressure;BME280_temperature;BME280_humidity;BME280_pressure;Samples;Min_cycle;Max_cycle;Signal;HPM_P1;HPM_P2
2022/12/23 00:00:59;;;;;;;12.80;10.38;;;;;;;2.35;92.90;147908.75;5124168;28;20028;-63
2022/12/23 00:03:26;;;;;;;13.05;9.80;;;;;;;2.37;93.06;147913.88;5103506;28;20225;-63
2022/12/23 00:05:51;;;;;;;12.63;9.73;;;;;;;2.30;93.09;147896.03;5119951;28;20208;-64
2022/12/23 00:08:17;;;;;;;13.02;10.15;;;;;;;2.19;93.20;147869.28;5112179;28;20028;-64
2022/12/23 00:10:43;;;;;;;13.15;10.30;;;;;;;2.12;93.72;147852.69;5103286;28;20055;-62
2022/12/23 00:16:02;;;;;;;12.25;9.63;;;;;;;2.26;93.75;147887.09;5057915;28;20103;-63
2022/12/23 00:18:27;;;;;;;12.23;9.85;;;;;;;2.41;93.41;147925.31;5055821;28;20035;-63
2022/12/23 00:21:07;;;;;;;13.13;10.15;;;;;;;2.35;93.07;147908.75;5043521;28;20278;-62
2022/12/23 00:23:35;;;;;;;15.80;11.02;;;;;;;2.26;92.95;147887.09;5045857;28;20085;-62
2022/12/23 00:26:01;;;;;;;15.00;10.63;;;;;;;2.30;93.53;147896.03;5052122;28;20044;-64
2022/12/23 00:28:28;;;;;;;11.85;9.70;;;;;;;2.35;93.38;147910.06;5062691;28;20048;-63
2022/12/23 00:31:03;;;;;;;15.55;10.85;;;;;;;2.16;93.92;147861.63;5063045;28;20067;-62
2022/12/23 00:33:31;;;;;;;13.90;10.65;;;;;;;2.09;94.38;147845.06;5042128;28;20078;-65
2022/12/23 00:35:57;;;;;;;13.98;11.63;;;;;;;2.25;94.11;147884.53;5043651;28;20048;-63
2022/12/23 00:43:55;;;;;;;12.80;10.18;;;;;;;2.35;94.21;147910.06;5062619;28;20039;-62
2022/12/23 00:46:21;;;;;;;14.73;11.25;;;;;;;2.28;93.36;147892.22;5053147;28;20052;-62
2022/12/23 00:51:31;;;;;;;12.52;9.75;;;;;;;2.06;94.62;147838.69;5046845;28;20074;-64
2022/12/23 00:53:56;;;;;;;12.18;9.32;;;;;;;2.12;95.37;147852.69;5063191;28;20029;-63
2022/12/23 00:56:22;;;;;;;13.85;10.10;;;;;;;2.12;95.20;147851.44;5054787;28;20040;-63
2022/12/23 00:58:47;;;;;;;13.50;10.07;;;;;;;2.11;95.26;147850.19;5053474;28;20025;-62
2022/12/23 01:06:41;;;;;;;13.60;10.32;;;;;;;2.07;95.50;147841.25;5066440;28;20105;-62
2022/12/23 01:09:07;;;;;;;13.63;10.45;;;;;;;2.19;95.15;147870.53;5048491;28;20096;-62
2022/12/23 01:11:33;;;;;;;15.68;10.57;;;;;;;2.27;94.81;147888.34;5059555;28;20096;-62
2022/12/23 01:13:58;;;;;;;14.57;10.55;;;;;;;2.26;94.90;147887.09;5058065;28;20538;-63
2022/12/23 01:16:24;;;;;;;15.60;11.55;;;;;;;2.01;95.21;147825.97;5049676;28;20028;-63
2022/12/23 01:18:50;;;;;;;14.32;10.85;;;;;;;2.13;95.48;147854.00;5064464;28;20029;-62
2022/12/23 01:21:15;;;;;;;14.50;10.40;;;;;;;2.23;94.95;147880.72;5046461;28;20033;-62
2022/12/23 01:23:41;;;;;;;18.38;11.75;;;;;;;2.27;95.20;147889.66;5049456;28;20333;-63
2022/12/23 01:26:07;;;;;;;15.48;11.00;;;;;;;2.30;94.93;147897.28;5055690;28;20301;-64
2022/12/23 01:28:34;;;;;;;15.15;11.48;;;;;;;2.16;94.50;147862.91;5065837;28;20028;-62
2022/12/23 01:31:02;;;;;;;15.75;11.43;;;;;;;2.24;94.80;147882.03;5066192;28;20189;-62
2022/12/23 01:33:27;;;;;;;15.45;12.13;;;;;;;2.14;94.99;147856.53;5046143;28;20186;-63
2022/12/23 01:36:05;;;;;;;16.13;11.35;;;;;;;2.10;94.71;147847.63;5047063;28;20021;-63
2022/12/23 01:38:30;;;;;;;15.45;10.90;;;;;;;2.30;94.20;147896.03;5058171;28;20041;-62
2022/12/23 01:40:56;;;;;;;16.00;10.77;;;;;;;2.30;94.62;147896.03;5062735;28;20092;-63
2022/12/23 01:43:23;;;;;;;14.98;11.05;;;;;;;2.37;94.31;147913.88;5057054;28;20235;-62
2022/12/23 01:45:48;;;;;;;15.73;11.63;;;;;;;2.36;93.70;147911.31;5065542;28;20092;-62
2022/12/23 01:48:17;;;;;;;17.13;12.25;;;;;;;2.27;93.83;147888.34;5066022;28;20025;-63
2022/12/23 01:51:05;;;;;;;17.77;12.05;;;;;;;2.14;94.24;147857.81;5048186;28;20342;-63
2022/12/23 01:53:36;;;;;;;16.75;12.52;;;;;;;2.14;94.48;147856.53;5061679;28;20033;-64
2022/12/23 01:56:27;;;;;;;18.33;13.25;;;;;;;2.22;94.54;147878.22;5053730;28;20017;-63
2022/12/23 01:58:58;;;;;;;18.27;12.18;;;;;;;2.08;95.12;147842.50;5056131;28;20037;-62
2022/12/23 02:04:13;;;;;;;20.90;13.73;;;;;;;1.99;95.60;147819.59;5061054;28;20028;-63
2022/12/23 02:09:33;;;;;;;20.05;13.13;;;;;;;2.00;95.43;147822.16;5065385;28;20188;-63
2022/12/23 02:12:07;;;;;;;20.08;14.38;;;;;;;2.06;95.49;147838.69;5045576;28;20309;-63
2022/12/23 02:17:47;;;;;;;19.58;14.25;;;;;;;2.07;95.49;147840.00;5045191;28;20076;-61
2022/12/23 02:20:31;;;;;;;21.30;14.18;;;;;;;2.12;95.70;147852.69;5058377;28;20032;-63
2022/12/23 02:23:12;;;;;;;22.83;14.25;;;;;;;2.06;95.68;147838.69;5053873;28;20349;-63
2022/12/23 02:25:46;;;;;;;17.58;13.05;;;;;;;2.15;95.61;147860.38;5062286;28;20083;-63
2022/12/23 02:29:01;;;;;;;24.30;13.95;;;;;;;1.90;95.63;147799.22;5063725;28;20280;-64
2022/12/23 02:31:48;;;;;;;18.58;13.80;;;;;;;1.96;95.30;147811.97;5058153;28;20037;-63
2022/12/23 02:34:19;;;;;;;21.23;14.65;;;;;;;1.96;95.30;147811.97;5049993;28;20036;-63
2022/12/23 02:36:58;;;;;;;23.58;13.80;;;;;;;1.92;95.98;147803.03;5064598;28;20040;-63
2022/12/23 02:39:37;;;;;;;22.67;14.98;;;;;;;2.04;95.36;147832.34;5064935;28;20033;-63
2022/12/23 02:42:15;;;;;;;23.00;14.18;;;;;;;1.91;95.57;147800.53;5044832;28;20298;-63
2022/12/23 02:45:07;;;;;;;20.98;14.93;;;;;;;2.00;95.55;147823.41;5044562;28;20038;-63
2022/12/23 02:47:47;;;;;;;21.35;15.30;;;;;;;1.99;95.49;147820.84;5055916;28;20025;-62
2022/12/23 02:50:32;;;;;;;22.15;14.65;;;;;;;1.82;95.40;147777.56;5045169;28;20286;-64
2022/12/23 02:53:02;;;;;;;23.10;15.55;;;;;;;1.87;95.11;147791.59;5043591;28;20041;-64
2022/12/23 02:55:33;;;;;;;22.23;15.25;;;;;;;2.01;95.14;147824.69;5051109;28;20379;-67
2022/12/23 02:58:05;;;;;;;22.75;15.05;;;;;;;1.96;95.08;147813.22;5061778;28;20329;-64
2022/12/23 03:00:31;;;;;;;24.27;15.73;;;;;;;2.04;95.30;147832.34;5044375;28;20037;-63
2022/12/23 03:02:57;;;;;;;22.17;15.32;;;;;;;2.02;95.42;147827.22;5063296;28;20191;-64
2022/12/23 03:05:38;;;;;;;24.75;15.95;;;;;;;2.01;95.22;147824.69;5050278;28;20028;-64
2022/12/23 03:08:06;;;;;;;24.58;16.83;;;;;;;1.93;95.26;147805.59;5055830;28;20229;-63
2022/12/23 03:11:00;;;;;;;30.60;17.30;;;;;;;2.14;95.22;147856.53;5056989;28;20030;-63
2022/12/23 03:13:42;;;;;;;27.25;18.10;;;;;;;2.00;95.14;147823.41;5050338;28;20029;-62
2022/12/23 03:16:35;;;;;;;25.30;17.45;;;;;;;2.07;94.59;147840.00;5053846;28;20180;-63
2022/12/23 03:19:19;;;;;;;24.40;17.05;;;;;;;2.21;94.92;147875.66;5044815;28;20237;-63
2022/12/23 03:22:04;;;;;;;24.75;16.98;;;;;;;2.10;94.92;147846.38;5044439;28;20183;-63
2022/12/23 03:24:48;;;;;;;30.90;18.77;;;;;;;2.16;94.61;147861.63;5063505;28;20056;-62
2022/12/23 03:27:25;;;;;;;26.77;18.00;;;;;;;2.02;95.32;147828.53;5043773;28;20036;-63
2022/12/23 03:29:58;;;;;;;25.67;18.35;;;;;;;2.02;94.82;147827.22;5061545;28;20096;-62
2022/12/23 03:32:27;;;;;;;30.00;18.98;;;;;;;2.03;95.30;147829.78;5049572;28;20027;-63
2022/12/23 03:34:55;;;;;;;29.35;19.23;;;;;;;2.06;95.17;147838.69;5053596;28;20360;-63
2022/12/23 03:37:25;;;;;;;28.20;19.25;;;;;;;1.92;95.06;147801.78;5058066;28;20029;-63
2022/12/23 03:40:00;;;;;;;33.60;20.63;;;;;;;1.96;95.66;147811.97;5044404;28;20048;-63
2022/12/23 03:42:32;;;;;;;34.75;20.70;;;;;;;1.89;95.19;147796.66;5063377;28;20024;-64
2022/12/23 03:45:02;;;;;;;31.42;20.92;;;;;;;2.06;95.54;147837.44;5063577;28;20377;-63
2022/12/23 03:47:45;;;;;;;33.88;21.88;;;;;;;2.01;95.75;147825.97;5063318;28;20088;-64
2022/12/23 03:50:15;;;;;;;34.00;21.17;;;;;;;1.99;95.56;147820.84;5051198;28;20413;-63
2022/12/23 03:52:45;;;;;;;28.42;19.00;;;;;;;2.11;95.34;147850.19;5043160;28;20579;-64
2022/12/23 03:55:17;;;;;;;29.60;20.48;;;;;;;1.99;95.29;147820.84;5047242;28;20028;-64
2022/12/23 03:57:50;;;;;;;33.40;21.02;;;;;;;1.99;95.38;147819.59;5063292;28;20225;-64
2022/12/23 04:00:16;;;;;;;32.63;20.27;;;;;;;2.00;95.79;147823.41;5043328;28;20083;-63
2022/12/23 04:02:53;;;;;;;32.03;19.83;;;;;;;2.00;95.56;147823.41;5059311;28;20238;-65
2022/12/23 04:05:35;;;;;;;33.33;21.48;;;;;;;2.08;95.59;147842.50;5062377;28;20041;-64
2022/12/23 04:08:27;;;;;;;32.53;21.13;;;;;;;2.16;95.02;147862.91;5052600;28;20063;-63
2022/12/23 04:10:52;;;;;;;30.48;20.25;;;;;;;2.20;95.09;147873.09;5051366;28;20037;-63
2022/12/23 04:13:18;;;;;;;33.38;20.40;;;;;;;2.21;95.11;147875.66;5056550;28;20217;-65
2022/12/23 04:15:44;;;;;;;31.58;20.10;;;;;;;2.23;94.69;147879.47;5059137;28;20241;-64
2022/12/23 04:18:10;;;;;;;30.40;19.98;;;;;;;2.21;94.86;147874.41;5062228;28;20037;-64
2022/12/23 04:20:36;;;;;;;28.80;19.70;;;;;;;2.17;94.83;147865.47;5048045;28;20218;-65
2022/12/23 04:23:02;;;;;;;30.92;20.25;;;;;;;2.21;94.70;147875.66;5053223;28;20328;-64
2022/12/23 04:25:28;;;;;;;29.50;19.42;;;;;;;2.21;94.72;147874.41;5056976;28;20037;-64
2022/12/23 04:27:53;;;;;;;29.88;19.40;;;;;;;2.16;95.07;147862.91;5043924;28;20033;-65
2022/12/23 04:30:19;;;;;;;32.25;18.95;;;;;;;2.19;95.15;147870.53;5059373;28;20047;-64
2022/12/23 04:32:44;;;;;;;29.63;19.65;;;;;;;2.28;94.47;147892.22;5049810;28;20032;-64
2022/12/23 04:35:11;;;;;;;31.88;18.70;;;;;;;2.13;94.89;147855.25;5048882;28;20025;-63
2022/12/23 04:37:37;;;;;;;32.78;19.92;;;;;;;2.19;94.90;147870.53;5050389;28;20029;-64
2022/12/23 04:40:03;;;;;;;35.38;18.67;;;;;;;2.21;94.92;147874.41;5044476;28;20130;-65
2022/12/23 04:42:29;;;;;;;29.02;18.77;;;;;;;2.23;94.97;147879.47;5058000;28;20060;-64
2022/12/23 04:44:54;;;;;;;25.70;17.63;;;;;;;2.29;94.77;147893.47;5046409;28;20360;-64
2022/12/23 04:47:20;;;;;;;26.88;18.13;;;;;;;2.19;94.75;147870.53;5052194;28;20032;-65
2022/12/23 04:49:46;;;;;;;29.73;18.10;;;;;;;2.28;94.58;147890.91;5057797;28;20055;-65
2022/12/23 04:52:11;;;;;;;28.85;18.42;;;;;;;2.28;94.83;147890.91;5056398;28;20033;-64
2022/12/23 04:54:37;;;;;;;25.90;17.42;;;;;;;2.34;94.71;147906.25;5049375;28;20070;-65
2022/12/23 04:57:02;;;;;;;29.40;18.38;;;;;;;2.40;94.49;147921.50;5042595;28;20092;-66
2022/12/23 04:59:28;;;;;;;30.23;18.48;;;;;;;2.41;94.19;147925.31;5053531;28;20040;-65
2022/12/23 05:01:54;;;;;;;27.23;18.10;;;;;;;2.30;94.52;147897.28;5053017;28;20037;-66
2022/12/23 05:04:19;;;;;;;32.17;19.27;;;;;;;2.13;95.02;147855.25;5046888;28;20021;-64
2022/12/23 05:06:45;;;;;;;30.75;19.48;;;;;;;2.19;95.48;147870.53;5062243;28;20033;-63
2022/12/23 05:09:10;;;;;;;28.48;18.42;;;;;;;2.25;95.13;147884.53;5053507;28;20033;-65
2022/12/23 05:11:36;;;;;;;32.53;19.92;;;;;;;2.27;95.21;147888.34;5059318;28;20031;-64
2022/12/23 05:14:01;;;;;;;32.15;18.83;;;;;;;2.30;95.00;147897.28;5055732;28;20281;-64
2022/12/23 05:16:27;;;;;;;30.33;18.13;;;;;;;2.31;94.62;147899.84;5066421;28;20037;-64
2022/12/23 05:18:53;;;;;;;32.60;19.17;;;;;;;2.20;94.95;147873.09;5059437;28;20033;-65
2022/12/23 05:21:18;;;;;;;30.05;18.42;;;;;;;2.32;94.57;147902.38;5042007;28;20033;-66
2022/12/23 05:23:44;;;;;;;31.95;19.50;;;;;;;2.19;94.75;147870.53;5057743;28;20029;-64
2022/12/23 05:26:10;;;;;;;31.38;19.65;;;;;;;2.10;95.10;147847.63;5050900;28;20021;-64
2022/12/23 05:28:35;;;;;;;31.05;18.00;;;;;;;2.07;95.32;147840.00;5048603;28;20048;-65
2022/12/23 05:31:04;;;;;;;24.88;16.63;;;;;;;2.06;95.61;147837.44;5061184;28;20305;-64
2022/12/23 05:33:30;;;;;;;26.10;16.73;;;;;;;2.08;94.97;147842.50;5062088;28;20029;-66
2022/12/23 05:35:56;;;;;;;24.83;16.80;;;;;;;2.16;95.23;147862.91;5046723;28;20306;-64
2022/12/23 05:38:22;;;;;;;25.02;16.90;;;;;;;2.13;95.35;147854.00;5045754;28;20029;-67
2022/12/23 05:40:48;;;;;;;26.52;16.08;;;;;;;2.20;94.46;147871.84;5045830;28;20029;-64
2022/12/23 05:43:14;;;;;;;27.45;17.10;;;;;;;1.92;95.20;147803.03;5055930;28;20095;-64
2022/12/23 05:45:40;;;;;;;25.92;16.77;;;;;;;1.99;95.51;147819.59;5065787;28;20213;-64
2022/12/23 05:48:05;;;;;;;27.00;16.45;;;;;;;2.18;95.60;147868.00;5046058;28;20048;-63
2022/12/23 05:50:31;;;;;;;26.58;17.25;;;;;;;2.26;94.93;147887.09;5045966;28;20194;-64
2022/12/23 05:52:57;;;;;;;24.77;15.90;;;;;;;2.20;94.70;147871.84;5045784;28;20381;-64
2022/12/23 05:55:26;;;;;;;25.05;16.58;;;;;;;2.11;95.18;147848.88;5048691;28;20025;-65
2022/12/23 05:57:52;;;;;;;23.05;15.80;;;;;;;2.21;95.20;147874.41;5065439;28;20044;-65
2022/12/23 06:00:18;;;;;;;24.98;17.00;;;;;;;2.03;95.35;147831.06;5045422;28;20253;-65
2022/12/23 06:02:44;;;;;;;27.05;16.88;;;;;;;2.14;95.47;147857.81;5051504;28;20064;-65
2022/12/23 06:05:10;;;;;;;25.10;16.38;;;;;;;2.16;95.03;147862.91;5056161;28;20017;-65
2022/12/23 06:07:37;;;;;;;25.77;16.58;;;;;;;2.17;95.50;147865.47;5059274;28;20025;-65
2022/12/23 06:10:04;;;;;;;25.45;16.33;;;;;;;2.22;95.46;147878.22;5046591;28;20036;-64
2022/12/23 06:12:30;;;;;;;24.15;15.88;;;;;;;2.22;94.70;147878.22;5065245;28;20029;-65
2022/12/23 06:14:56;;;;;;;20.35;14.43;;;;;;;2.25;94.76;147884.53;5048702;28;20052;-64
2022/12/23 06:17:21;;;;;;;19.88;13.65;;;;;;;2.27;94.90;147889.66;5057712;28;20028;-64
2022/12/23 06:19:47;;;;;;;20.92;15.07;;;;;;;2.32;95.07;147901.13;5056192;28;20101;-64
2022/12/23 06:22:13;;;;;;;19.25;14.40;;;;;;;2.31;94.26;147898.56;5048142;28;20029;-65
2022/12/23 06:24:39;;;;;;;20.90;14.48;;;;;;;2.23;94.50;147879.47;5064990;28;20341;-65
2022/12/23 06:27:05;;;;;;;19.10;14.25;;;;;;;2.27;94.28;147888.34;5046900;28;20032;-64
2022/12/23 06:29:30;;;;;;;20.25;14.23;;;;;;;2.29;94.44;147894.72;5047938;28;20033;-64
2022/12/23 06:31:56;;;;;;;19.92;14.20;;;;;;;2.23;94.49;147879.47;5053768;28;20318;-67
2022/12/23 06:34:21;;;;;;;19.67;13.60;;;;;;;2.29;94.64;147894.72;5060947;28;20064;-66
2022/12/23 06:36:47;;;;;;;20.02;14.43;;;;;;;2.31;94.48;147898.56;5044929;28;20079;-64
2022/12/23 06:39:13;;;;;;;20.80;13.95;;;;;;;2.27;94.32;147889.66;5064065;28;20052;-66
2022/12/23 06:41:39;;;;;;;20.25;14.60;;;;;;;2.34;94.36;147906.25;5050270;28;20100;-67
2022/12/23 06:44:05;;;;;;;22.55;15.18;;;;;;;2.24;94.72;147882.03;5061095;28;20028;-64
2022/12/23 06:46:30;;;;;;;22.25;14.50;;;;;;;2.32;94.35;147901.13;5058762;28;20017;-65
2022/12/23 06:48:56;;;;;;;21.35;14.93;;;;;;;2.34;94.44;147906.25;5059524;28;20324;-66
2022/12/23 06:51:21;;;;;;;21.75;15.05;;;;;;;2.32;94.93;147901.13;5044354;28;20314;-64
2022/12/23 06:53:47;;;;;;;21.00;14.38;;;;;;;2.34;94.20;147906.25;5044505;28;20025;-64
2022/12/23 06:56:12;;;;;;;21.58;15.07;;;;;;;2.39;94.66;147918.94;5053766;28;20020;-64
2022/12/23 06:58:38;;;;;;;20.25;14.68;;;;;;;2.36;94.31;147911.31;5058184;28;20071;-64
2022/12/23 07:01:04;;;;;;;26.67;15.60;;;;;;;2.34;94.19;147906.25;5045260;28;20321;-64
2022/12/23 07:03:29;;;;;;;22.90;13.75;;;;;;;2.52;94.20;147952.09;5053642;28;20248;-64
2022/12/23 07:05:55;;;;;;;23.35;15.18;;;;;;;2.40;94.10;147922.78;5054583;28;20036;-65
2022/12/23 07:08:21;;;;;;;20.05;14.98;;;;;;;2.32;94.50;147901.13;5055292;28;20029;-65
2022/12/23 07:10:46;;;;;;;23.20;15.40;;;;;;;2.39;94.39;147918.94;5055079;28;20233;-64
2022/12/23 07:13:12;;;;;;;20.23;14.95;;;;;;;2.43;94.17;147929.16;5055250;28;20247;-65
2022/12/23 07:15:38;;;;;;;25.40;16.42;;;;;;;2.49;94.30;147943.16;5052584;28;20249;-64
2022/12/23 07:18:04;;;;;;;29.20;20.65;;;;;;;2.33;94.27;147903.69;5050536;28;20029;-64
2022/12/23 07:20:30;;;;;;;34.03;22.02;;;;;;;2.42;94.68;147926.59;5053044;28;20024;-64
2022/12/23 07:22:56;;;;;;;33.50;23.10;;;;;;;2.41;94.17;147925.31;5055846;28;20337;-64
2022/12/23 07:25:23;;;;;;;31.58;20.80;;;;;;;2.39;94.68;147918.94;5054728;28;20029;-63
2022/12/23 07:27:53;;;;;;;28.83;18.92;;;;;;;2.36;94.63;147912.56;5046605;28;20029;-64
2022/12/23 07:30:18;;;;;;;32.10;18.95;;;;;;;2.36;94.62;147911.31;5052333;28;20025;-63
2022/12/23 07:32:47;;;;;;;26.58;17.10;;;;;;;2.28;94.77;147892.22;5048650;28;20037;-64
2022/12/23 07:35:13;;;;;;;30.75;18.33;;;;;;;2.20;95.54;147873.09;5055734;28;20025;-64
2022/12/23 07:37:38;;;;;;;31.50;19.00;;;;;;;2.24;95.11;147883.28;5063747;28;20052;-66
2022/12/23 07:40:05;;;;;;;27.58;17.33;;;;;;;2.37;95.65;147913.88;5062735;28;20352;-65
2022/12/23 07:42:31;;;;;;;27.95;18.10;;;;;;;2.41;95.56;147924.06;5047896;28;20035;-65
2022/12/23 07:44:56;;;;;;;27.95;18.88;;;;;;;2.31;95.16;147899.84;5060413;28;20201;-66
2022/12/23 07:47:22;;;;;;;33.08;19.65;;;;;;;2.39;94.91;147920.25;5049126;28;20032;-65
2022/12/23 07:49:48;;;;;;;29.60;18.63;;;;;;;2.30;95.46;147896.03;5049954;28;20198;-66
2022/12/23 07:52:13;;;;;;;30.77;17.75;;;;;;;2.24;95.69;147882.03;5052458;28;20040;-65
2022/12/23 07:54:39;;;;;;;31.13;18.48;;;;;;;2.26;95.52;147885.84;5062900;28;20025;-65
2022/12/23 07:57:04;;;;;;;30.35;19.10;;;;;;;2.17;95.81;147865.47;5048649;28;20021;-66
2022/12/23 07:59:30;;;;;;;33.25;19.88;;;;;;;1.99;96.78;147820.84;5052968;28;20037;-63
2022/12/23 08:01:56;;;;;;;33.30;20.63;;;;;;;2.02;96.89;147827.22;5053650;28;20063;-64
2022/12/23 08:04:21;;;;;;;31.98;19.33;;;;;;;2.15;97.00;147860.38;5053776;28;20072;-65
2022/12/23 08:06:47;;;;;;;31.23;20.40;;;;;;;2.29;96.65;147894.72;5051563;28;20037;-64
2022/12/23 08:09:12;;;;;;;32.97;19.48;;;;;;;2.25;95.62;147884.53;5053956;28;20314;-64
2022/12/23 08:11:38;;;;;;;35.95;19.73;;;;;;;2.35;95.65;147908.75;5047999;28;20099;-63
2022/12/23 08:14:03;;;;;;;33.45;20.52;;;;;;;2.23;95.73;147880.72;5050659;28;20397;-64
2022/12/23 08:16:29;;;;;;;32.65;20.48;;;;;;;2.13;96.50;147855.25;5050376;28;20041;-65
2022/12/23 08:18:56;;;;;;;31.25;20.63;;;;;;;2.26;96.17;147887.09;5054003;28;20045;-64
2022/12/23 08:21:21;;;;;;;35.25;21.13;;;;;;;2.07;96.60;147840.00;5052946;28;20045;-63
2022/12/23 08:23:47;;;;;;;33.60;20.90;;;;;;;2.18;96.68;147868.00;5054938;28;20025;-64
2022/12/23 08:26:18;;;;;;;34.85;20.33;;;;;;;1.97;96.69;147814.53;5054093;28;20035;-64
2022/12/23 08:28:44;;;;;;;32.33;20.17;;;;;;;2.13;96.93;147855.25;5053289;28;20329;-64
2022/12/23 08:31:18;;;;;;;35.70;21.35;;;;;;;2.28;96.66;147890.91;5052393;28;20040;-63
2022/12/23 08:33:48;;;;;;;37.05;21.25;;;;;;;2.08;96.29;147842.50;5053288;28;20064;-63
2022/12/23 08:36:17;;;;;;;34.97;21.30;;;;;;;2.13;96.87;147855.25;5055285;28;20080;-63
2022/12/23 08:38:43;;;;;;;37.28;22.05;;;;;;;2.20;96.52;147871.84;5054856;28;20022;-64
2022/12/23 08:41:15;;;;;;;34.28;21.90;;;;;;;2.15;96.70;147860.38;5053023;28;20048;-64
2022/12/23 08:43:41;;;;;;;32.75;21.42;;;;;;;2.19;96.29;147870.53;5053740;28;20083;-63
2022/12/23 08:46:06;;;;;;;35.83;21.17;;;;;;;2.12;96.54;147851.44;5055252;28;20044;-63
2022/12/23 08:48:33;;;;;;;41.35;23.00;;;;;;;2.13;96.94;147855.25;5051011;28;20030;-63
2022/12/23 08:51:06;;;;;;;38.45;21.90;;;;;;;2.15;96.69;147859.06;5050593;28;20025;-64
2022/12/23 08:53:33;;;;;;;38.90;23.27;;;;;;;2.09;96.75;147845.06;5054908;28;20344;-62
2022/12/23 08:56:05;;;;;;;41.65;22.67;;;;;;;2.09;96.71;147845.06;5057105;28;20029;-62
2022/12/23 08:58:30;;;;;;;;;;;;;;;2.28;96.97;147892.22;5056353;28;20029;-63
2022/12/23 09:00:56;;;;;;;36.78;21.10;;;;;;;2.23;96.42;147880.72;5059011;28;20170;-62
2022/12/23 09:03:22;;;;;;;39.08;22.27;;;;;;;2.27;96.52;147888.34;5046071;28;20313;-63
2022/12/23 09:05:47;;;;;;;38.45;22.83;;;;;;;2.14;96.70;147857.81;5047711;28;20021;-64
2022/12/23 09:08:13;;;;;;;40.72;22.23;;;;;;;2.29;96.79;147893.47;5052302;28;20029;-63
2022/12/23 09:10:42;;;;;;;35.88;20.98;;;;;;;2.41;96.81;147925.31;5065723;28;20037;-64
2022/12/23 09:13:10;;;;;;;42.53;22.27;;;;;;;2.29;96.22;147893.47;5063511;28;20195;-64
2022/12/23 09:15:40;;;;;;;39.85;22.00;;;;;;;2.18;96.14;147868.00;5061489;28;20087;-64
2022/12/23 09:18:06;;;;;;;35.75;22.05;;;;;;;2.41;96.21;147925.31;5056974;28;20373;-64
2022/12/23 09:20:31;;;;;;;42.15;22.23;;;;;;;2.25;96.10;147884.53;5058264;28;20036;-66
2022/12/23 09:22:59;;;;;;;46.58;24.83;;;;;;;2.38;96.16;147917.69;5058024;28;20035;-64
2022/12/23 09:25:25;;;;;;;44.08;22.85;;;;;;;2.17;97.12;147864.19;5054748;28;20059;-64
2022/12/23 09:27:50;;;;;;;44.97;23.98;;;;;;;2.17;97.20;147865.47;5056151;28;20025;-64
2022/12/23 09:30:16;;;;;;;45.95;24.42;;;;;;;2.30;97.22;147896.03;5055889;28;20021;-64
2022/12/23 09:32:42;;;;;;;47.40;24.30;;;;;;;2.11;97.06;147850.19;5055623;28;20029;-64
2022/12/23 09:35:08;;;;;;;44.03;24.17;;;;;;;2.27;97.08;147888.34;5058062;28;20025;-64
2022/12/23 09:37:35;;;;;;;44.38;25.45;;;;;;;2.40;96.48;147922.78;5055909;28;20289;-65
2022/12/23 09:40:01;;;;;;;44.72;24.20;;;;;;;2.33;97.21;147903.69;5055427;28;20214;-64
2022/12/23 09:43:03;;;;;;;43.38;23.98;;;;;;;2.40;96.38;147921.50;5057892;28;20027;-65
2022/12/23 09:45:56;;;;;;;48.15;25.33;;;;;;;2.23;96.95;147880.72;5056472;28;20029;-64
2022/12/23 09:48:27;;;;;;;42.55;23.77;;;;;;;2.17;97.38;147865.47;5055614;28;20289;-64
2022/12/23 09:50:54;;;;;;;51.50;26.50;;;;;;;2.18;97.20;147868.00;5062400;28;20321;-65
2022/12/23 09:53:24;;;;;;;46.00;25.83;;;;;;;1.79;96.93;147771.19;5055495;28;20237;-64
2022/12/23 09:56:18;;;;;;;48.25;24.70;;;;;;;2.39;97.11;147918.94;5048789;28;20036;-65
2022/12/23 09:58:51;;;;;;;46.45;25.10;;;;;;;2.29;96.77;147893.47;5055268;28;20314;-65
2022/12/23 10:01:47;;;;;;;43.85;24.10;;;;;;;2.04;97.79;147833.63;5055848;28;20252;-65
2022/12/23 10:04:22;;;;;;;40.97;24.00;;;;;;;2.29;97.48;147893.47;5045737;28;20079;-64
2022/12/23 10:07:21;;;;;;;37.67;23.42;;;;;;;2.22;97.64;147878.22;5059130;28;20040;-65
2022/12/23 10:09:50;;;;;;;45.15;24.02;;;;;;;2.28;97.41;147890.91;5050706;28;20033;-65
2022/12/23 10:12:32;;;;;;;37.60;22.73;;;;;;;2.32;96.66;147902.38;5055651;28;20325;-63
2022/12/23 10:15:01;;;;;;;38.80;21.38;;;;;;;2.27;97.02;147888.34;5057478;28;20186;-64
2022/12/23 10:17:34;;;;;;;40.50;23.13;;;;;;;2.36;97.12;147911.31;5059776;28;20025;-65
2022/12/23 10:20:03;;;;;;;45.80;23.20;;;;;;;2.28;97.39;147892.22;5059577;28;20029;-64
2022/12/23 10:22:37;;;;;;;35.85;21.45;;;;;;;2.23;96.95;147879.47;5059504;28;20068;-63
2022/12/23 10:25:27;;;;;;;37.17;21.33;;;;;;;2.24;96.90;147883.28;5065104;28;20194;-64
2022/12/23 10:27:53;;;;;;;39.88;21.88;;;;;;;2.28;97.86;147892.22;5044847;28;20040;-64
2022/12/23 10:30:21;;;;;;;36.08;21.92;;;;;;;2.29;97.78;147893.47;5058690;28;20025;-66
2022/12/23 10:33:18;;;;;;;37.17;21.63;;;;;;;2.37;97.49;147915.13;5053157;28;20124;-62
2022/12/23 10:35:49;;;;;;;35.45;21.67;;;;;;;2.42;97.00;147926.59;5057340;28;20033;-63
2022/12/23 10:38:44;;;;;;;40.38;21.70;;;;;;;2.38;96.97;147916.38;5055018;28;20025;-63
2022/12/23 10:41:49;;;;;;;32.95;20.60;;;;;;;2.34;97.05;147907.50;5052575;28;20032;-63
2022/12/23 10:44:23;;;;;;;37.83;21.42;;;;;;;2.21;98.25;147875.66;5056742;28;20028;-63
2022/12/23 10:47:29;;;;;;;34.38;21.52;;;;;;;2.32;97.84;147901.13;5057962;28;20044;-63
2022/12/23 10:50:03;;;;;;;38.03;22.17;;;;;;;2.34;97.37;147907.50;5055254;28;20192;-62
2022/12/23 10:52:34;;;;;;;36.15;21.80;;;;;;;2.32;97.71;147901.13;5056254;28;20044;-63
2022/12/23 10:55:00;;;;;;;32.00;21.53;;;;;;;2.27;98.29;147889.66;5057709;28;20025;-63
2022/12/23 10:57:26;;;;;;;35.42;21.20;;;;;;;2.34;97.66;147907.50;5045902;28;20485;-63
2022/12/23 10:59:51;;;;;;;35.22;21.83;;;;;;;2.04;98.26;147833.63;5051408;28;20118;-63
2022/12/23 11:02:49;;;;;;;35.42;22.33;;;;;;;2.34;98.38;147907.50;5055477;28;20032;-62
2022/12/23 11:05:21;;;;;;;33.67;20.52;;;;;;;2.32;98.05;147901.13;5057330;28;20031;-61
2022/12/23 11:07:47;;;;;;;31.83;20.23;;;;;;;2.33;97.50;147904.94;5054887;28;20280;-63
2022/12/23 11:10:19;;;;;;;33.00;21.73;;;;;;;2.35;97.43;147910.06;5055509;28;20029;-62
2022/12/23 11:12:52;;;;;;;30.42;20.90;;;;;;;2.37;97.07;147913.88;5046775;28;20040;-63
2022/12/23 11:15:38;;;;;;;28.83;19.95;;;;;;;2.27;97.60;147889.66;5057904;28;20048;-63
2022/12/23 11:18:11;;;;;;;28.83;20.45;;;;;;;2.36;97.27;147911.31;5056587;28;20060;-63
2022/12/23 11:20:39;;;;;;;30.67;20.58;;;;;;;2.49;97.03;147943.16;5054002;28;20060;-63
2022/12/23 11:23:21;;;;;;;31.13;21.55;;;;;;;2.45;97.13;147932.97;5051340;28;20027;-63
2022/12/23 11:25:47;;;;;;;;;;;;;;;2.47;96.78;147939.34;5054029;28;20025;-63
2022/12/23 11:28:18;;;;;;;30.33;19.63;;;;;;;2.47;96.81;147939.34;5060430;28;19916;-64
2022/12/23 11:30:49;;;;;;;31.60;19.63;;;;;;;2.49;97.17;147944.41;5044926;28;20582;-63
2022/12/23 11:33:29;;;;;;;26.98;19.67;;;;;;;2.35;97.53;147908.75;5060446;28;20028;-63
2022/12/23 11:36:06;;;;;;;30.30;20.52;;;;;;;2.47;97.10;147939.34;5063499;28;20032;-63
2022/12/23 11:38:33;;;;;;;25.30;18.88;;;;;;;2.53;97.09;147954.63;5052644;28;20564;-63
2022/12/23 11:40:59;;;;;;;27.38;20.48;;;;;;;2.49;96.81;147944.41;5065319;28;20029;-64
2022/12/23 11:43:26;;;;;;;28.95;20.55;;;;;;;2.52;96.61;147952.09;5063653;28;20118;-64
2022/12/23 11:46:16;;;;;;;29.15;19.38;;;;;;;2.55;96.16;147959.75;5062479;28;20222;-63
2022/12/23 11:48:41;;;;;;;24.92;19.65;;;;;;;2.49;96.96;147944.41;5043385;28;20029;-63
2022/12/23 11:51:07;;;;;;;30.02;19.92;;;;;;;2.42;96.93;147926.59;5059094;28;20619;-64
2022/12/23 11:53:35;;;;;;;26.98;18.50;;;;;;;2.54;96.87;147957.19;5063398;28;20068;-62
2022/12/23 11:56:11;;;;;;;24.25;17.92;;;;;;;2.63;96.87;147978.84;5063064;28;20036;-63